Time;durP1;ratioP1;P1;durP2;ratioP2;P2;SDS_P1;SDS_P2;PMS_P1;PMS_P2;Temp;Humidity;BMP_temperature;BMP_pressure;BME280_temperature;BME280_humidity;BME280_pressure;Samples;Min_cycle;Max_cycle;Signal;HPM_P1;HPM_P2
2023/12/02 00:02:22;;;;;;;;;;;;;;;7.42;68.85;99078.75;5070954;28;20404;-78
2023/12/02 00:04:47;;;;;;;;;;;;;;;7.32;68.90;99079.75;5072424;28;19913;-78
2023/12/02 00:07:13;;;;;;;;;;;;;;;7.33;68.78;99070.88;5072123;28;20294;-77
2023/12/02 00:09:38;;;;;;;;;;;;;;;7.33;69.39;99068.25;5072162;28;19923;-78
2023/12/02 00:12:04;;;;;;;;;;;;;;;7.31;69.13;99072.88;5071990;28;19951;-77
2023/12/02 00:14:29;;;;;;;;;;;;;;;7.27;69.23;99070.75;5070901;28;19960;-78
2023/12/02 00:16:55;;;;;;;;;;;;;;;7.26;69.55;99079.63;5072183;28;19912;-77
2023/12/02 00:19:20;;;;;;;;;;;;;;;7.26;69.75;99090.13;5072122;28;20001;-77
2023/12/02 00:21:45;;;;;;;;;;;;;;;7.26;69.00;99090.94;5072067;28;20425;-76
2023/12/02 00:24:11;;;;;;;;;;;;;;;7.26;69.67;99085.69;5072108;28;20435;-77
2023/12/02 00:26:36;;;;;;;;;;;;;;;7.28;69.17;99086.34;5070717;28;20433;-77
2023/12/02 00:29:01;;;;;;;;;;;;;;;7.26;68.80;99076.97;5072176;28;19916;-77
2023/12/02 00:31:27;;;;;;;;;;;;;;;7.21;69.27;99059.13;5072074;28;19944;-76
2023/12/02 00:33:52;;;;;;;;;;;;;;;7.21;68.84;99060.91;5072127;28;20007;-77
2023/12/02 00:36:17;;;;;;;;;;;;;;;7.19;69.49;99057.63;5070813;28;19912;-77
2023/12/02 00:38:43;;;;;;;;;;;;;;;7.15;69.07;99057.16;5074448;28;19912;-78
2023/12/02 00:41:09;;;;;;;;;;;;;;;7.14;69.19;99054.69;5071334;28;20412;-77
2023/12/02 00:43:35;;;;;;;;;;;;;;;7.15;69.64;99066.84;5071762;28;19913;-77
2023/12/02 00:46:00;;;;;;;;;;;;;;;7.16;69.12;99065.84;5070562;28;20341;-77
2023/12/02 00:48:25;;;;;;;;;;;;;;;7.12;69.57;99067.19;5071794;28;19920;-77
2023/12/02 00:50:51;;;;;;;;;;;;;;;7.10;68.90;99059.47;5071783;28;19923;-77
2023/12/02 00:53:16;;;;;;;;;;;;;;;7.08;68.88;99065.88;5071730;28;19912;-78
2023/12/02 00:55:41;;;;;;;;;;;;;;;7.07;69.21;99054.56;5071539;28;19927;-77
2023/12/02 00:58:06;;;;;;;;;;;;;;;7.06;69.25;99058.16;5071545;28;19924;-78
2023/12/02 01:00:32;;;;;;;;;;;;;;;7.07;69.75;99058.97;5071602;28;19923;-76
2023/12/02 01:02:57;;;;;;;;;;;;;;;7.05;69.38;99051.28;5071612;28;19935;-77
2023/12/02 01:05:22;;;;;;;;;;;;;;;7.05;69.52;99053.09;5071580;28;19927;-77
2023/12/02 01:07:48;;;;;;;;;;;;;;;7.01;69.01;99056.03;5071563;28;19970;-77
2023/12/02 01:10:13;;;;;;;;;;;;;;;7.03;68.97;99049.81;5071274;28;20400;-77
2023/12/02 01:12:39;;;;;;;;;;;;;;;7.00;69.25;99045.72;5070163;28;19912;-77
2023/12/02 01:15:04;;;;;;;;;;;;;;;7.00;69.39;99040.47;5071545;28;19959;-77
2023/12/02 01:17:29;;;;;;;;;;;;;;;7.02;68.99;99038.50;5070187;28;20349;-76
2023/12/02 01:19:55;;;;;;;;;;;;;;;7.01;69.35;99042.09;5071346;28;19920;-77
2023/12/02 01:22:20;;;;;;;;;;;;;;;6.98;69.32;99030.13;5071437;28;19966;-77
2023/12/02 01:24:45;;;;;;;;;;;;;;;6.97;69.26;99022.44;5071551;28;19979;-77
2023/12/02 01:27:11;;;;;;;;;;;;;;;6.95;69.13;99035.72;5070022;28;20410;-77
2023/12/02 01:29:36;;;;;;;;;;;;;;;6.92;68.86;99033.41;5071181;28;19985;-77
2023/12/02 01:32:01;;;;;;;;;;;;;;;6.86;68.88;99028.03;5071389;28;20462;-77
2023/12/02 01:34:27;;;;;;;;;;;;;;;6.82;69.19;99030.16;5071347;28;19920;-78
2023/12/02 01:36:52;;;;;;;;;;;;;;;6.83;69.74;99026.56;5071260;28;20442;-77
2023/12/02 01:39:17;;;;;;;;;;;;;;;6.84;69.33;99019.50;5071267;28;19943;-76
2023/12/02 01:41:42;;;;;;;;;;;;;;;6.83;68.89;99017.88;5071307;28;20439;-77
2023/12/02 01:44:10;;;;;;;;;;;;;;;6.78;69.55;99018.38;5071258;28;20390;-76
2023/12/02 01:46:36;;;;;;;;;;;;;;;6.78;68.88;99020.16;5071187;28;19999;-77
2023/12/02 01:49:02;;;;;;;;;;;;;;;6.75;69.61;99010.81;5071208;28;20021;-75
2023/12/02 01:51:27;;;;;;;;;;;;;;;6.75;69.63;99017.88;5072365;28;19920;-76
2023/12/02 01:53:53;;;;;;;;;;;;;;;6.74;69.24;99017.06;5074854;28;19936;-76
2023/12/02 01:56:18;;;;;;;;;;;;;;;6.75;69.14;99013.44;5074581;28;20397;-77
2023/12/02 01:58:44;;;;;;;;;;;;;;;6.77;69.74;99013.28;5074913;28;19916;-75
2023/12/02 02:01:09;;;;;;;;;;;;;;;6.79;69.78;99011.31;5074608;28;19923;-76
2023/12/02 02:03:35;;;;;;;;;;;;;;;6.73;69.17;99010.16;5073207;28;19935;-76
2023/12/02 02:06:00;;;;;;;;;;;;;;;6.75;69.78;98999.50;5074484;28;19955;-76
2023/12/02 02:08:25;;;;;;;;;;;;;;;6.79;69.47;98996.38;5074731;28;19916;-76
2023/12/02 02:10:55;;;;;;;;;;;;;;;6.77;69.77;99003.59;5074455;28;19925;-77
2023/12/02 02:13:20;;;;;;;;;;;;;;;6.79;69.65;99006.06;5074616;28;19913;-76
2023/12/02 02:15:46;;;;;;;;;;;;;;;6.76;69.56;99004.59;5074523;28;19991;-76
2023/12/02 02:18:11;;;;;;;;;;;;;;;6.78;69.60;99012.28;5074349;28;20309;-76
2023/12/02 02:20:36;;;;;;;;;;;;;;;6.81;69.82;99015.41;5074242;28;20445;-77
2023/12/02 02:23:02;;;;;;;;;;;;;;;6.82;69.96;99017.03;5074315;28;20428;-76
2023/12/02 02:25:27;;;;;;;;;;;;;;;6.81;69.15;99007.53;5074268;28;20024;-77
2023/12/02 02:27:52;;;;;;;;;;;;;;;6.80;69.29;99018.19;5074401;28;20042;-77
2023/12/02 02:30:18;;;;;;;;;;;;;;;6.75;68.99;99013.44;5074115;28;19917;-77
2023/12/02 02:32:43;;;;;;;;;;;;;;;6.71;68.77;98998.22;5074202;28;20317;-77
2023/12/02 02:35:08;;;;;;;;;;;;;;;6.65;69.63;99000.47;5074251;28;19916;-78
2023/12/02 02:37:34;;;;;;;;;;;;;;;6.63;69.43;99001.63;5073892;28;19927;-77
2023/12/02 02:39:59;;;;;;;;;;;;;;;6.64;69.45;99001.47;5072692;28;20309;-76
2023/12/02 02:42:24;;;;;;;;;;;;;;;6.61;68.86;99016.72;5073987;28;19912;-75
2023/12/02 02:44:50;;;;;;;;;;;;;;;6.60;69.26;99022.94;5073977;28;19919;-78
2023/12/02 02:47:15;;;;;;;;;;;;;;;6.60;69.25;99025.56;5073799;28;19919;-77
2023/12/02 02:49:40;;;;;;;;;;;;;;;6.52;68.65;99022.94;5072488;28;19923;-77
2023/12/02 02:52:05;;;;;;;;;;;;;;;6.46;69.36;99031.47;5074184;28;20007;-78
2023/12/02 02:54:31;;;;;;;;;;;;;;;6.41;69.50;99042.47;5073571;28;20012;-77
2023/12/02 02:56:56;;;;;;;;;;;;;;;6.40;69.49;99030.34;5073361;28;20304;-77
2023/12/02 02:59:21;;;;;;;;;;;;;;;6.36;68.98;99018.53;5073639;28;20434;-77
2023/12/02 03:01:47;;;;;;;;;;;;;;;6.34;69.31;99023.94;5073444;28;19919;-78
2023/12/02 03:04:13;;;;;;;;;;;;;;;6.37;69.80;99028.03;5072375;28;19912;-77
2023/12/02 03:06:39;;;;;;;;;;;;;;;6.40;69.40;99032.97;5073166;28;20416;-77
2023/12/02 03:09:05;;;;;;;;;;;;;;;6.40;69.45;99016.41;5073348;28;19917;-77
2023/12/02 03:11:30;;;;;;;;;;;;;;;6.41;69.48;99008.38;5073317;28;19917;-76
2023/12/02 03:13:55;;;;;;;;;;;;;;;6.39;70.09;98999.84;5073259;28;19920;-77
2023/12/02 03:16:21;;;;;;;;;;;;;;;6.43;69.58;98989.84;5073195;28;19916;-77
2023/12/02 03:18:46;;;;;;;;;;;;;;;6.46;69.99;98994.78;5073306;28;19919;-77
2023/12/02 03:21:11;;;;;;;;;;;;;;;6.46;69.46;98995.59;5071934;28;19955;-78
2023/12/02 03:23:37;;;;;;;;;;;;;;;6.47;69.53;98986.72;5073286;28;19913;-77
2023/12/02 03:26:02;;;;;;;;;;;;;;;6.52;69.63;98988.88;5072848;28;19912;-77
2023/12/02 03:28:27;;;;;;;;;;;;;;;6.56;69.83;98988.38;5071795;28;19970;-77
2023/12/02 03:30:53;;;;;;;;;;;;;;;6.56;70.12;98977.06;5072938;28;19917;-77
2023/12/02 03:33:18;;;;;;;;;;;;;;;6.49;70.18;98973.47;5072945;28;19913;-77
2023/12/02 03:35:44;;;;;;;;;;;;;;;6.48;69.86;98977.88;5073045;28;19913;-77
2023/12/02 03:38:09;;;;;;;;;;;;;;;6.48;69.96;98977.06;5072893;28;19920;-76
2023/12/02 03:40:35;;;;;;;;;;;;;;;6.50;69.43;98980.34;5072650;28;19912;-77
2023/12/02 03:43:00;;;;;;;;;;;;;;;6.51;70.20;98971.47;5072703;28;19912;-77
2023/12/02 03:45:26;;;;;;;;;;;;;;;6.54;70.06;98979.03;5072735;28;19928;-76
2023/12/02 03:47:51;;;;;;;;;;;;;;;6.56;70.08;98971.81;5072709;28;19979;-76
2023/12/02 03:50:17;;;;;;;;;;;;;;;6.57;69.93;98962.94;5072614;28;19917;-77
2023/12/02 03:52:44;;;;;;;;;;;;;;;6.54;69.29;98961.47;5072515;28;19912;-76
2023/12/02 03:55:09;;;;;;;;;;;;;;;6.50;69.40;98964.59;5072534;28;19917;-77
2023/12/02 03:57:34;;;;;;;;;;;;;;;6.46;69.55;98969.34;5072529;28;19916;-76
2023/12/02 04:00:00;;;;;;;;;;;;;;;6.42;69.42;98954.94;5076400;28;19913;-77
2023/12/02 04:02:26;;;;;;;;;;;;;;;6.37;70.50;98958.06;5079637;28;19912;-77
2023/12/02 04:04:51;;;;;;;;;;;;;;;6.36;70.00;98966.91;5076791;28;19920;-77
2023/12/02 04:07:17;;;;;;;;;;;;;;;6.41;70.14;98957.72;5072658;28;19924;-78
2023/12/02 04:09:43;;;;;;;;;;;;;;;6.42;69.52;98964.63;5070915;28;19966;-77
2023/12/02 04:12:08;;;;;;;;;;;;;;;6.42;70.41;98960.19;5072484;28;19912;-78
2023/12/02 04:14:34;;;;;;;;;;;;;;;6.43;70.44;98963.63;5071935;28;19958;-77
2023/12/02 04:16:59;;;;;;;;;;;;;;;6.43;70.28;98966.25;5072054;28;19969;-77
2023/12/02 04:19:24;;;;;;;;;;;;;;;6.44;69.58;98949.53;5071917;28;20412;-77
2023/12/02 04:21:50;;;;;;;;;;;;;;;6.44;69.93;98955.59;5071884;28;19912;-78
2023/12/02 04:24:15;;;;;;;;;;;;;;;6.47;70.33;98967.56;5071784;28;19908;-77
2023/12/02 04:26:41;;;;;;;;;;;;;;;6.47;70.25;98978.06;5071932;28;19912;-77
2023/12/02 04:29:06;;;;;;;;;;;;;;;6.46;69.97;98969.34;5071872;28;19912;-76
2023/12/02 04:31:32;;;;;;;;;;;;;;;6.47;69.60;98959.69;5070595;28;20389;-77
2023/12/02 04:33:57;;;;;;;;;;;;;;;6.44;70.22;98955.59;5071926;28;19935;-77
2023/12/02 04:36:22;;;;;;;;;;;;;;;6.41;70.57;98957.72;5071806;28;20313;-76
2023/12/02 04:38:48;;;;;;;;;;;;;;;6.42;69.61;98943.63;5071836;28;19912;-77
2023/12/02 04:41:13;;;;;;;;;;;;;;;6.44;70.29;98944.28;5071919;28;19912;-77
2023/12/02 04:43:38;;;;;;;;;;;;;;;6.47;70.05;98942.16;5070589;28;20005;-78
2023/12/02 04:46:07;;;;;;;;;;;;;;;6.47;69.64;98947.41;5071759;28;19916;-77
2023/12/02 04:48:33;;;;;;;;;;;;;;;6.45;70.39;98943.31;5070523;28;20019;-76
2023/12/02 04:50:58;;;;;;;;;;;;;;;6.43;70.49;98935.59;5071481;28;19999;-77
2023/12/02 04:53:23;;;;;;;;;;;;;;;6.43;70.20;98926.91;5071623;28;19913;-77
2023/12/02 04:55:49;;;;;;;;;;;;;;;6.44;69.85;98932.00;5071590;28;19919;-77
2023/12/02 04:58:14;;;;;;;;;;;;;;;6.47;70.57;98942.16;5070447;28;20424;-77
2023/12/02 05:00:39;;;;;;;;;;;;;;;6.45;70.45;98940.69;5071725;28;19995;-77
2023/12/02 05:03:05;;;;;;;;;;;;;;;6.46;70.70;98935.28;5071695;28;20278;-77
2023/12/02 05:05:32;;;;;;;;;;;;;;;6.49;70.38;98945.44;5071689;28;20007;-77
2023/12/02 05:07:57;;;;;;;;;;;;;;;6.51;70.60;98940.03;5071610;28;20439;-77
2023/12/02 05:10:23;;;;;;;;;;;;;;;6.48;70.17;98935.91;5071614;28;19947;-76
2023/12/02 05:12:48;;;;;;;;;;;;;;;6.49;70.42;98944.59;5071561;28;20381;-78
2023/12/02 05:15:14;;;;;;;;;;;;;;;6.49;70.37;98968.22;5071274;28;19912;-77
2023/12/02 05:17:39;;;;;;;;;;;;;;;6.44;69.97;98971.34;5071350;28;19913;-77
2023/12/02 05:20:05;;;;;;;;;;;;;;;6.32;69.15;98976.09;5071265;28;19916;-77
2023/12/02 05:22:31;;;;;;;;;;;;;;;6.27;69.89;98964.47;5071263;28;19985;-78
2023/12/02 05:24:56;;;;;;;;;;;;;;;6.20;69.73;98960.88;5071213;28;20005;-77
2023/12/02 05:27:21;;;;;;;;;;;;;;;6.15;70.00;98955.28;5073913;28;19982;-77
2023/12/02 05:29:47;;;;;;;;;;;;;;;6.14;69.92;98959.72;5075291;28;19916;-77
2023/12/02 05:32:12;;;;;;;;;;;;;;;6.12;69.38;98950.38;5073971;28;20309;-76
2023/12/02 05:34:37;;;;;;;;;;;;;;;6.07;69.40;98944.81;5075325;28;19912;-78
2023/12/02 05:37:03;;;;;;;;;;;;;;;6.04;69.26;98945.97;5075274;28;20290;-77
2023/12/02 05:39:28;;;;;;;;;;;;;;;6.02;69.28;98934.81;5075044;28;19912;-77
2023/12/02 05:41:53;;;;;;;;;;;;;;;6.00;69.02;98921.06;5073852;28;19912;-77
2023/12/02 05:44:19;;;;;;;;;;;;;;;6.01;69.25;98931.38;5075141;28;19984;-77
2023/12/02 05:46:44;;;;;;;;;;;;;;;6.00;68.99;98918.44;5073653;28;19912;-78
2023/12/02 05:49:10;;;;;;;;;;;;;;;5.98;69.76;98928.28;5075094;28;20003;-76
2023/12/02 05:51:38;;;;;;;;;;;;;;;6.00;69.57;98915.81;5074936;28;20343;-76
2023/12/02 05:54:06;;;;;;;;;;;;;;;6.02;69.38;98913.84;5074864;28;19912;-77
2023/12/02 05:56:31;;;;;;;;;;;;;;;6.02;69.21;98911.25;5074711;28;20495;-78
2023/12/02 05:58:57;;;;;;;;;;;;;;;6.07;69.40;98908.94;5074666;28;19912;-77
2023/12/02 06:01:22;;;;;;;;;;;;;;;6.07;69.39;98918.59;5074433;28;19912;-77
2023/12/02 06:03:48;;;;;;;;;;;;;;;6.09;69.20;98933.19;5074638;28;19912;-78
2023/12/02 06:06:14;;;;;;;;;;;;;;;6.07;69.61;98931.72;5074420;28;19920;-77
2023/12/02 06:08:39;;;;;;;;;;;;;;;6.09;69.01;98924.50;5073231;28;19987;-76
2023/12/02 06:11:05;;;;;;;;;;;;;;;6.08;69.01;98936.78;5074398;28;19920;-77
2023/12/02 06:13:30;;;;;;;;;;;;;;;6.09;69.56;98924.50;5074533;28;19912;-76
2023/12/02 06:15:55;;;;;;;;;;;;;;;6.13;69.35;98924.00;5074564;28;20301;-77
2023/12/02 06:18:20;;;;;;;;;;;;;;;6.17;69.72;98929.75;5074398;28;19920;-78
2023/12/02 06:20:46;;;;;;;;;;;;;;;6.24;68.80;98933.34;5074243;28;20408;-78
2023/12/02 06:23:11;;;;;;;;;;;;;;;6.31;69.57;98926.44;5074232;28;19923;-78
2023/12/02 06:25:37;;;;;;;;;;;;;;;6.38;69.22;98919.56;5074302;28;19912;-78
2023/12/02 06:28:03;;;;;;;;;;;;;;;6.47;69.30;98925.59;5074321;28;19920;-75
2023/12/02 06:30:28;;;;;;;;;;;;;;;6.52;69.35;98929.34;5074107;28;19916;-76
2023/12/02 06:32:54;;;;;;;;;;;;;;;6.60;69.75;98941.63;5072829;28;19913;-75
2023/12/02 06:35:19;;;;;;;;;;;;;;;6.69;68.93;98931.00;5073887;28;19935;-78
2023/12/02 06:37:45;;;;;;;;;;;;;;;6.75;69.43;98936.53;5073809;28;20321;-75
2023/12/02 06:40:10;;;;;;;;;;;;;;;6.81;69.12;98934.06;5073855;28;20463;-78
2023/12/02 06:42:35;;;;;;;;;;;;;;;6.85;69.19;98937.16;5073646;28;19956;-77
2023/12/02 06:45:01;;;;;;;;;;;;;;;6.85;69.38;98938.00;5072709;28;19912;-78
2023/12/02 06:47:26;;;;;;;;;;;;;;;6.91;69.97;98936.50;5073960;28;19966;-76
2023/12/02 06:49:51;;;;;;;;;;;;;;;6.97;69.03;98927.94;5073839;28;19970;-78
2023/12/02 06:52:17;;;;;;;;;;;;;;;7.01;68.99;98914.31;5073881;28;19966;-78
2023/12/02 06:54:42;;;;;;;;;;;;;;;7.05;69.78;98912.16;5073624;28;20321;-77
2023/12/02 06:57:08;;;;;;;;;;;;;;;7.11;69.69;98918.53;5073838;28;19913;-78
2023/12/02 06:59:33;;;;;;;;;;;;;;;7.16;69.62;98922.28;5073626;28;19918;-75
2023/12/02 07:01:59;;;;;;;;;;;;;;;7.26;69.76;98911.56;5073464;28;19992;-79
2023/12/02 07:04:24;;;;;;;;;;;;;;;7.31;70.90;98911.88;5073707;28;19951;-77
2023/12/02 07:06:50;;;;;;;;;;;;;;;7.41;69.91;98907.22;5073254;28;19970;-78
2023/12/02 07:09:15;;;;;;;;;;;;;;;7.47;70.70;98916.25;5073422;28;19942;-78
2023/12/02 07:11:41;;;;;;;;;;;;;;;7.54;70.56;98904.88;5073216;28;19924;-78
2023/12/02 07:14:06;;;;;;;;;;;;;;;7.64;70.93;98921.22;5071934;28;19920;-77
2023/12/02 07:16:31;;;;;;;;;;;;;;;7.74;71.55;98920.16;5073299;28;19920;-77
2023/12/02 07:18:57;;;;;;;;;;;;;;;7.82;71.43;98928.81;5071927;28;20431;-78
2023/12/02 07:21:22;;;;;;;;;;;;;;;7.93;70.86;98919.69;5073038;28;20003;-78
2023/12/02 07:23:48;;;;;;;;;;;;;;;8.03;71.42;98919.44;5072985;28;19912;-78
2023/12/02 07:26:14;;;;;;;;;;;;;;;8.11;70.55;98907.06;5072983;28;19916;-78
2023/12/02 07:28:40;;;;;;;;;;;;;;;8.31;74.05;98917.09;5073073;28;20011;-76
2023/12/02 07:31:05;;;;;;;;;;;;;;;8.46;71.32;98910.88;5072856;28;20012;-76
2023/12/02 07:33:30;;;;;;;;;;;;;;;8.89;71.86;98911.09;5072890;28;19920;-77
2023/12/02 07:35:56;;;;;;;;;;;;;;;9.39;76.51;98923.47;5072757;28;19909;-75
2023/12/02 07:38:21;;;;;;;;;;;;;;;9.92;75.37;98915.31;5071310;28;19917;-77
2023/12/02 07:40:46;;;;;;;;;;;;;;;10.58;76.97;98914.06;5072993;28;19939;-77
2023/12/02 07:43:12;;;;;;;;;;;;;;;11.06;78.88;98911.47;5072777;28;20007;-78
2023/12/02 07:45:37;;;;;;;;;;;;;;;11.40;70.12;98915.91;5072720;28;20393;-77
2023/12/02 07:48:03;;;;;;;;;;;;;;;11.81;71.43;98897.31;5072847;28;19916;-78
2023/12/02 07:50:28;;;;;;;;;;;;;;;12.12;78.01;98917.91;5072039;28;19917;-78
2023/12/02 07:52:53;;;;;;;;;;;;;;;12.39;71.53;98908.13;5071341;28;19920;-76
2023/12/02 07:55:19;;;;;;;;;;;;;;;12.68;74.85;98906.91;5072646;28;19935;-77
2023/12/02 07:57:44;;;;;;;;;;;;;;;12.90;71.02;98904.81;5071334;28;20321;-78
2023/12/02 08:00:10;;;;;;;;;;;;;;;13.01;72.43;98901.50;5072502;28;19965;-77
2023/12/02 08:02:35;;;;;;;;;;;;;;;13.06;71.48;98901.69;5072692;28;19965;-77
2023/12/02 08:05:00;;;;;;;;;;;;;;;13.10;71.84;98894.94;5072338;28;20401;-77
2023/12/02 08:07:25;;;;;;;;;;;;;;;13.32;72.67;98895.50;5072387;28;19912;-76
2023/12/02 08:09:51;;;;;;;;;;;;;;;13.39;70.29;98888.34;5072156;28;20407;-78
2023/12/02 08:12:16;;;;;;;;;;;;;;;13.48;72.29;98881.78;5059563;28;19917;-77
2023/12/02 08:14:41;;;;;;;;;;;;;;;13.73;72.19;98905.69;5066373;28;19966;-77
2023/12/02 08:17:07;;;;;;;;;;;;;;;13.90;71.22;98890.88;5070773;28;20315;-76
2023/12/02 08:19:33;;;;;;;;;;;;;;;14.02;72.14;98884.88;5071970;28;19916;-77
2023/12/02 08:21:58;;;;;;;;;;;;;;;14.16;72.39;98889.09;5055308;28;19923;-77
2023/12/02 08:24:24;;;;;;;;;;;;;;;14.25;72.56;98887.78;5052121;28;19978;-76
2023/12/02 08:26:49;;;;;;;;;;;;;;;14.32;73.15;98884.03;5050706;28;20414;-78
2023/12/02 08:29:14;;;;;;;;;;;;;;;14.39;72.01;98891.13;5051902;28;19912;-77
2023/12/02 08:31:40;;;;;;;;;;;;;;;14.44;70.84;98888.66;5051510;28;19917;-78
2023/12/02 08:34:05;;;;;;;;;;;;;;;14.51;72.68;98886.75;5050516;28;19913;-77
2023/12/02 08:36:30;;;;;;;;;;;;;;;14.62;71.51;98876.22;5051759;28;19962;-77
2023/12/02 08:38:56;;;;;;;;;;;;;;;14.68;70.98;98892.31;5051951;28;19919;-77
2023/12/02 08:41:21;;;;;;;;;;;;;;;14.77;71.68;98909.59;5051871;28;19923;-78
2023/12/02 08:43:46;;;;;;;;;;;;;;;14.83;71.85;98900.72;5050464;28;19961;-77
2023/12/02 08:46:12;;;;;;;;;;;;;;;14.88;70.53;98904.38;5051888;28;19917;-78
2023/12/02 08:48:38;;;;;;;;;;;;;;;14.90;71.93;98915.59;5051832;28;20373;-78
2023/12/02 08:51:03;;;;;;;;;;;;;;;14.95;71.58;98901.66;5051398;28;19964;-78
2023/12/02 08:53:29;;;;;;;;;;;;;;;15.03;71.87;98900.53;5051550;28;19991;-77
2023/12/02 08:55:54;;;;;;;;;;;;;;;15.08;71.03;98892.72;5051737;28;20398;-76
2023/12/02 08:58:19;;;;;;;;;;;;;;;15.11;70.09;98905.56;5051688;28;19913;-77
2023/12/02 09:00:45;;;;;;;;;;;;;;;15.15;70.81;98906.72;5050329;28;19971;-77
2023/12/02 09:03:10;;;;;;;;;;;;;;;15.21;70.51;98906.66;5055749;28;19995;-75
2023/12/02 09:05:35;;;;;;;;;;;;;;;15.25;70.32;98912.34;5055915;28;20392;-76
2023/12/02 09:08:01;;;;;;;;;;;;;;;15.37;70.68;98909.72;5056201;28;19947;-77
2023/12/02 09:10:26;;;;;;;;;;;;;;;15.39;69.96;98905.00;5057102;28;19970;-76
2023/12/02 09:12:52;;;;;;;;;;;;;;;15.34;69.54;98892.38;5054352;28;19924;-76
2023/12/02 09:15:17;;;;;;;;;;;;;;;15.29;69.11;98884.25;5055533;28;19913;-78
2023/12/02 09:18:01;;;;;;;;;;;;;;;15.27;69.87;98884.47;5054292;28;19919;-76
2023/12/02 09:20:26;;;;;;;;;;;;;;;15.30;71.24;98869.91;5055646;28;19913;-76
2023/12/02 09:22:53;;;;;;;;;;;;;;;15.32;68.71;98854.56;5054228;28;20354;-76
2023/12/02 09:25:25;;;;;;;;;;;;;;;15.37;70.16;98849.38;5055394;28;19939;-76
2023/12/02 09:27:54;;;;;;;;;;;;;;;15.40;69.64;98850.75;5055387;28;20397;-77
2023/12/02 09:30:19;;;;;;;;;;;;;;;15.45;69.96;98842.91;5055236;28;19986;-77
2023/12/02 09:32:45;;;;;;;;;;;;;;;15.44;69.50;98843.94;5055511;28;20382;-75
2023/12/02 09:35:11;;;;;;;;;;;;;;;15.41;68.74;98831.91;5055223;28;20429;-76
2023/12/02 09:37:39;;;;;;;;;;;;;;;15.47;69.04;98832.84;5055079;28;19952;-75
2023/12/02 09:40:19;;;;;;;;;;;;;;;15.48;69.22;98829.97;5055135;28;19959;-75
2023/12/02 09:43:04;;;;;;;;;;;;;;;15.50;69.07;98829.75;5053795;28;19920;-77
2023/12/02 09:45:33;;;;;;;;;;;;;;;15.47;69.76;98828.34;5055456;28;19912;-78
2023/12/02 09:48:05;;;;;;;;;;;;;;;15.42;69.28;98835.38;5054967;28;20393;-77
2023/12/02 09:50:34;;;;;;;;;;;;;;;15.40;69.88;98843.59;5053358;28;19916;-75
2023/12/02 09:53:17;;;;;;;;;;;;;;;15.35;68.96;98834.66;5054591;28;19913;-77
2023/12/02 09:55:50;;;;;;;;;;;;;;;15.33;69.60;98840.22;5054461;28;19921;-76
2023/12/02 09:58:24;;;;;;;;;;;;;;;15.31;67.38;98844.94;5054760;28;19917;-74
2023/12/02 10:00:54;;;;;;;;;;;;;;;14.92;60.83;98841.78;5054741;28;19920;-77
2023/12/02 10:03:36;;;;;;;;;;;;;;;14.55;63.47;98843.59;5054570;28;19920;-78
2023/12/02 10:06:02;;;;;;;;;;;;;;;14.21;64.03;98841.47;5054533;28;19921;-76
2023/12/02 10:08:45;;;;;;;;;;;;;;;13.88;62.78;98837.22;5054730;28;19920;-77
2023/12/02 10:11:20;;;;;;;;;;;;;;;13.67;65.92;98842.88;5053235;28;19920;-77
2023/12/02 10:13:48;;;;;;;;;;;;;;;13.43;66.06;98831.22;5053969;28;19913;-77
2023/12/02 10:16:18;;;;;;;;;;;;;;;13.25;66.26;98823.13;5053147;28;19920;-77
2023/12/02 10:18:48;;;;;;;;;;;;;;;13.14;66.45;98827.25;5054403;28;20360;-76
2023/12/02 10:21:16;;;;;;;;;;;;;;;13.07;66.64;98818.50;5054392;28;20377;-77
2023/12/02 10:23:42;;;;;;;;;;;;;;;12.99;66.71;98827.53;5054408;28;19919;-76
2023/12/02 10:26:25;;;;;;;;;;;;;;;12.92;65.75;98828.56;5054167;28;19995;-77
2023/12/02 10:29:09;;;;;;;;;;;;;;;12.87;66.03;98812.50;5054196;28;19913;-77
2023/12/02 10:31:35;;;;;;;;;;;;;;;12.81;66.43;98808.03;5054184;28;19917;-77
2023/12/02 10:34:13;;;;;;;;;;;;;;;12.73;66.52;98799.31;5054178;28;19916;-77
2023/12/02 10:36:39;;;;;;;;;;;;;;;12.78;68.80;98793.38;5054252;28;19942;-77
2023/12/02 10:39:15;;;;;;;;;;;;;;;12.83;67.62;98800.69;5054159;28;19917;-76
2023/12/02 10:41:43;;;;;;;;;;;;;;;12.84;67.90;98794.38;5054071;28;19913;-76
2023/12/02 10:44:09;;;;;;;;;;;;;;;12.94;68.87;98807.97;5054127;28;19916;-77
2023/12/02 10:46:35;;;;;;;;;;;;;;;13.30;70.93;98800.28;5054083;28;19912;-77
2023/12/02 10:49:01;;;;;;;;;;;;;;;13.51;70.45;98807.09;5053789;28;19913;-77
2023/12/02 10:51:27;;;;;;;;;;;;;;;13.60;69.33;98802.34;5054122;28;20008;-77
2023/12/02 10:53:54;;;;;;;;;;;;;;;13.65;68.23;98792.69;5055227;28;19917;-78
2023/12/02 10:56:23;;;;;;;;;;;;;;;13.67;68.68;98795.13;5052257;28;19995;-77
2023/12/02 10:58:49;;;;;;;;;;;;;;;13.65;68.81;98798.00;5053646;28;19944;-77
2023/12/02 11:01:18;;;;;;;;;;;;;;;13.67;68.00;98800.44;5052294;28;19952;-76
2023/12/02 11:03:59;;;;;;;;;;;;;;;13.65;68.30;98797.19;5052124;28;20320;-76
2023/12/02 11:06:29;;;;;;;;;;;;;;;13.57;67.73;98790.31;5053067;28;19921;-76
2023/12/02 11:08:59;;;;;;;;;;;;;;;13.58;70.45;98780.53;5053265;28;19913;-76
2023/12/02 11:11:27;;;;;;;;;;;;;;;13.72;69.62;98771.44;5053302;28;19970;-77
2023/12/02 11:13:54;;;;;;;;;;;;;;;13.92;70.47;98764.09;5053266;28;19943;-77
2023/12/02 11:16:32;;;;;;;;;;;;;;;14.15;69.12;98747.56;5053129;28;19912;-77
2023/12/02 11:19:00;;;;;;;;;;;;;;;14.34;68.96;98748.38;5053103;28;19913;-77
2023/12/02 11:21:40;;;;;;;;;;;;;;;14.55;68.61;98724.06;5051860;28;19920;-77
2023/12/02 11:24:19;;;;;;;;;;;;;;;14.77;70.76;98708.44;5052190;28;19970;-76
2023/12/02 11:26:57;;;;;;;;;;;;;;;14.92;70.07;98702.75;5052972;28;20459;-77
2023/12/02 11:29:35;;;;;;;;;;;;;;;15.03;68.79;98687.88;5052895;28;19913;-77
2023/12/02 11:32:14;;;;;;;;;;;;;;;15.12;68.61;98691.81;5052865;28;19948;-77
2023/12/02 11:34:42;;;;;;;;;;;;;;;15.20;68.57;98686.16;5051597;28;19913;-79
2023/12/02 11:37:17;;;;;;;;;;;;;;;15.26;69.05;98688.72;5052836;28;19966;-77
2023/12/02 11:39:42;;;;;;;;;;;;;;;15.30;68.73;98680.28;5052718;28;20023;-77
2023/12/02 11:42:17;;;;;;;;;;;;;;;15.35;68.37;98672.41;5052647;28;20390;-77
2023/12/02 11:45:00;;;;;;;;;;;;;;;15.35;68.29;98672.41;5052704;28;19913;-76
2023/12/02 11:47:44;;;;;;;;;;;;;;;15.45;67.85;98662.84;5052698;28;19920;-77
2023/12/02 11:50:18;;;;;;;;;;;;;;;15.52;67.78;98660.06;5052183;28;19917;-78
2023/12/02 11:53:03;;;;;;;;;;;;;;;15.52;67.93;98657.41;5050910;28;19943;-77
2023/12/02 11:55:30;;;;;;;;;;;;;;;15.50;68.42;98678.09;5052087;28;19917;-77
2023/12/02 11:58:12;;;;;;;;;;;;;;;15.56;67.56;98671.84;5052330;28;19919;-78
2023/12/02 12:00:47;;;;;;;;;;;;;;;15.64;67.50;98658.25;5052364;28;19909;-77
2023/12/02 12:03:33;;;;;;;;;;;;;;;15.69;67.11;98639.75;5052819;28;20389;-74
2023/12/02 12:06:04;;;;;;;;;;;;;;;15.76;67.04;98632.44;5045099;28;19925;-78
2023/12/02 12:08:49;;;;;;;;;;;;;;;15.86;66.76;98621.22;5052239;28;19936;-77
2023/12/02 12:11:16;;;;;;;;;;;;;;;15.90;66.62;98630.34;5052206;28;19917;-74
2023/12/02 12:13:45;;;;;;;;;;;;;;;15.97;66.15;98633.69;5051171;28;21378;-74
2023/12/02 12:16:10;;;;;;;;;;;;;;;16.04;66.06;98642.34;5052193;28;20394;-76
2023/12/02 12:18:36;;;;;;;;;;;;;;;16.11;65.46;98652.88;5052016;28;19966;-76
2023/12/02 12:21:01;;;;;;;;;;;;;;;16.18;65.40;98646.38;5050854;28;19917;-76
2023/12/02 12:23:28;;;;;;;;;;;;;;;16.21;65.08;98642.41;5052020;28;19913;-76
2023/12/02 12:25:53;;;;;;;;;;;;;;;16.24;65.23;98646.47;5050713;28;19958;-75
2023/12/02 12:28:18;;;;;;;;;;;;;;;16.26;65.11;98657.69;5050778;28;19913;-76
2023/12/02 12:30:48;;;;;;;;;;;;;;;16.25;64.28;98648.88;5051992;28;19986;-76
2023/12/02 12:33:19;;;;;;;;;;;;;;;16.24;64.64;98646.47;5052653;28;19920;-77
2023/12/02 12:35:45;;;;;;;;;;;;;;;16.25;64.57;98642.75;5053898;28;19935;-76
2023/12/02 12:38:10;;;;;;;;;;;;;;;16.23;64.57;98637.66;5052145;28;19913;-77
2023/12/02 12:40:36;;;;;;;;;;;;;;;16.24;64.79;98633.16;5051851;28;19943;-77
2023/12/02 12:43:02;;;;;;;;;;;;;;;16.32;64.68;98635.44;5051873;28;19919;-76
2023/12/02 12:45:27;;;;;;;;;;;;;;;16.42;64.33;98625.00;5051761;28;19913;-78
2023/12/02 12:47:55;;;;;;;;;;;;;;;16.52;64.11;98638.50;5051756;28;20389;-76
2023/12/02 12:50:22;;;;;;;;;;;;;;;16.56;63.69;98633.50;5051396;28;19917;-77
2023/12/02 12:52:51;;;;;;;;;;;;;;;16.63;63.79;98634.97;5050218;28;20011;-76